Arlington, WI

12:35 PM CST on November 23, 2014 (GMT -0600)
MW122 - W. Acker Pkwy. | Change Station
CLOSE
Current Station
Personal Weather Station
Location: DeForest, WI
Elevation: 945 ft
Nearby Weather Stations

Elev 945 ft 43.24 °N, 89.36 °W | Updated 7 seconds ago

Rain
Rain
47.1 °F
Feels Like 44 °F
N
5.7
Wind Variable Wind from SW
Gusts 9.2 mph

Today
High -- | Low -- °F
--% Chance of Precip.
Yesterday
High -- | Low -- °F
Precip. -- in
7:00 AM 4:26 PM
New Moon, 2% visible
Pressure 29.55 in
Visibility 3.0 miles
Clouds Mostly Cloudy 500 ft
Mostly Cloudy 900 ft
Overcast 7000 ft
Windchill 44 °F
Dew Point 46 °F
Humidity 95%
Rainfall 0.00 in
Snow Depth Not available.
UV 1 out of 12
Pollen .10 out of 12
Air Quality Not available.
Flu Activity Not available.
SPECI KMSN 231801Z 17011KT 3SM -RA BR BKN005 BKN009 OVC070 09/08 A2955 RMK AO2 SFC VIS 4 P0001 T00890078

More Conditions Fewer Conditions

Pressure 29.55 in
Visibility 3.0 miles
Clouds Mostly Cloudy 500 ft
Mostly Cloudy 900 ft
Overcast 7000 ft
Windchill 44 °F
Dew Point 46 °F
Humidity 95%
Rainfall 0.00 in
Snow Depth Not available.
UV 1 out of 12
Pollen .10 out of 12
Air Quality Not available.
Flu Activity Not available.
SPECI KMSN 231801Z 17011KT 3SM -RA BR BKN005 BKN009 OVC070 09/08 A2955 RMK AO2 SFC VIS 4 P0001 T00890078

More Conditions Fewer Conditions

10-Day Weather Forecast

Almanac

Astronomy

Nov. 23, 2014 Rise Set
Actual Time
Civil Twilight
Nautical Twilight
Astronomical Twilight
Moon
Length of Visible Light
Length of Day
Tomorrow will be .
, % of the Moon is Illuminated

Today's Extremes

State Highs State Lows

Community

WunderPhotos

Upload Photos

1,773,126 photos uploaded!

WunderBlogs® & News

Nearby

Air Quality

  Air Quality AQ Index Pollutant
Not available.

Snow Depth

Station Depth Elevation

Earthquake Activity

City Distance Mag. Time & Date
Minimum magnitude displayed is 2.5.

Coastal Water Temperatures

Place Temperature

Nearby Weather Stations